createdAt,value
2017-08-31T00:00:42.888Z,85.00
2017-08-31T00:03:11.211Z,85.10
2017-08-31T00:05:39.465Z,84.80
2017-08-31T00:08:08.510Z,84.90
2017-08-31T00:10:36.778Z,84.90
2017-08-31T00:13:05.900Z,85.00
2017-08-31T00:15:34.161Z,85.10
2017-08-31T00:18:02.443Z,85.00
2017-08-31T00:20:30.715Z,85.30
2017-08-31T00:22:59.010Z,85.30
2017-08-31T00:25:27.269Z,86.20
2017-08-31T00:27:55.536Z,85.30
2017-08-31T00:30:23.893Z,86.10
2017-08-31T00:32:52.190Z,85.30
2017-08-31T00:35:20.441Z,86.10
2017-08-31T00:37:48.703Z,87.20
2017-08-31T00:40:17.005Z,86.60
2017-08-31T00:42:45.369Z,87.40
2017-08-31T00:45:13.628Z,87.70
2017-08-31T00:47:41.935Z,86.70
2017-08-31T00:50:10.195Z,87.60
2017-08-31T00:52:38.461Z,87.30
2017-08-31T00:55:06.713Z,88.40
2017-08-31T00:57:35.041Z,87.80
2017-08-31T01:00:03.310Z,87.50
2017-08-31T01:02:31.599Z,87.60
2017-08-31T01:04:59.868Z,87.70
2017-08-31T01:07:28.253Z,88.00
2017-08-31T01:09:56.506Z,88.00
2017-08-31T01:12:24.769Z,87.60
2017-08-31T01:14:53.115Z,87.70
2017-08-31T01:17:21.359Z,87.40
2017-08-31T01:19:49.755Z,87.50
2017-08-31T01:22:18.023Z,87.50
2017-08-31T01:24:46.402Z,87.20
2017-08-31T01:27:14.679Z,87.30
2017-08-31T01:29:42.955Z,87.20
2017-08-31T01:32:11.236Z,87.60
2017-08-31T01:34:39.609Z,87.00
2017-08-31T01:37:07.879Z,87.30
2017-08-31T01:39:36.270Z,87.30
2017-08-31T01:42:04.646Z,87.50
2017-08-31T01:44:32.943Z,87.80
2017-08-31T01:47:01.196Z,87.70
2017-08-31T01:49:29.473Z,87.80
2017-08-31T01:51:57.769Z,87.70
2017-08-31T01:54:26.055Z,88.10
2017-08-31T01:56:54.406Z,88.60
2017-08-31T01:59:22.655Z,88.70
2017-08-31T02:01:50.930Z,88.90
2017-08-31T02:04:19.200Z,89.10
2017-08-31T02:06:47.473Z,89.40
2017-08-31T02:09:15.790Z,89.60
2017-08-31T02:11:44.171Z,90.10
2017-08-31T02:14:12.448Z,90.30
2017-08-31T02:16:40.710Z,90.50
2017-08-31T02:19:08.959Z,90.80
2017-08-31T02:21:37.285Z,90.80
2017-08-31T02:24:05.557Z,91.10
2017-08-31T02:26:34.755Z,91.50
2017-08-31T02:29:03.043Z,91.60
2017-08-31T02:31:31.317Z,91.60
2017-08-31T02:33:59.689Z,91.80
2017-08-31T02:36:28.089Z,92.00
2017-08-31T02:38:56.459Z,92.20
2017-08-31T02:41:24.839Z,92.30
2017-08-31T02:43:53.211Z,92.50
2017-08-31T02:46:21.588Z,92.70
2017-08-31T02:48:49.869Z,92.90
2017-08-31T02:51:18.263Z,93.00
2017-08-31T02:53:46.619Z,93.20
2017-08-31T02:56:14.892Z,93.40
2017-08-31T02:58:43.147Z,93.50
2017-08-31T03:01:11.407Z,93.50
2017-08-31T03:03:39.829Z,93.60
2017-08-31T03:06:08.076Z,93.70
2017-08-31T03:08:36.378Z,93.90
2017-08-31T03:11:04.665Z,94.10
2017-08-31T03:13:33.028Z,94.20
2017-08-31T03:16:01.299Z,94.30
2017-08-31T03:18:29.563Z,94.50
2017-08-31T03:20:57.876Z,94.80
2017-08-31T03:23:26.263Z,94.90
2017-08-31T03:25:54.533Z,95.00
2017-08-31T03:28:22.792Z,95.20
2017-08-31T03:30:51.068Z,95.50
2017-08-31T03:33:19.463Z,95.60
2017-08-31T03:35:47.724Z,95.70
2017-08-31T03:38:16.001Z,96.00
2017-08-31T03:40:44.281Z,96.30
2017-08-31T03:43:12.572Z,96.40
2017-08-31T03:45:40.847Z,96.60
2017-08-31T03:48:09.230Z,96.90
2017-08-31T03:50:37.489Z,97.10
2017-08-31T03:53:05.766Z,97.40
2017-08-31T03:55:34.065Z,97.60
2017-08-31T03:58:02.367Z,97.80
2017-08-31T04:00:30.624Z,98.10
2017-08-31T04:02:58.901Z,98.50
2017-08-31T04:05:27.172Z,98.90
2017-08-31T04:07:55.443Z,99.00
2017-08-31T04:10:23.733Z,99.40
2017-08-31T04:12:51.988Z,99.80
2017-08-31T04:15:20.394Z,99.90
2017-08-31T04:17:48.751Z,99.90
2017-08-31T04:20:17.040Z,99.90
2017-08-31T04:22:45.323Z,99.90
2017-08-31T04:25:13.697Z,99.90
2017-08-31T04:27:41.967Z,99.90
2017-08-31T04:30:10.255Z,99.90
2017-08-31T04:32:38.625Z,99.90
2017-08-31T04:35:07.003Z,99.90
2017-08-31T04:37:35.259Z,99.90
2017-08-31T04:40:03.556Z,99.90
2017-08-31T04:42:31.823Z,99.90
2017-08-31T04:45:00.128Z,99.90
2017-08-31T04:47:28.384Z,99.90
2017-08-31T04:49:56.643Z,99.90
2017-08-31T04:52:24.936Z,99.90
2017-08-31T04:54:53.199Z,99.90
2017-08-31T04:57:21.495Z,99.90
2017-08-31T04:59:49.747Z,99.90
2017-08-31T05:02:18.048Z,99.90
2017-08-31T05:04:46.323Z,99.90
2017-08-31T05:07:14.587Z,99.90
2017-08-31T05:09:42.858Z,99.90
2017-08-31T05:12:11.159Z,99.90
2017-08-31T05:14:39.410Z,99.90
2017-08-31T05:17:07.687Z,99.90
2017-08-31T05:19:35.967Z,99.90
2017-08-31T05:22:04.259Z,99.90
2017-08-31T05:24:32.521Z,99.90
2017-08-31T05:27:00.818Z,99.90
2017-08-31T05:29:29.070Z,99.90
2017-08-31T05:31:57.347Z,99.90
2017-08-31T05:34:25.644Z,99.90
2017-08-31T05:36:53.901Z,99.90
2017-08-31T05:39:22.204Z,99.90
2017-08-31T05:41:50.485Z,99.90
2017-08-31T05:44:18.748Z,99.90
2017-08-31T05:46:47.008Z,99.90
2017-08-31T05:49:15.290Z,99.90
2017-08-31T05:51:43.544Z,99.90
2017-08-31T05:54:11.827Z,99.90
2017-08-31T05:56:40.103Z,99.90
2017-08-31T05:59:08.387Z,99.90
2017-08-31T06:01:36.654Z,99.90
2017-08-31T06:04:05.741Z,99.90
2017-08-31T06:06:34.062Z,99.90
2017-08-31T06:09:02.308Z,99.90
2017-08-31T06:11:30.594Z,99.90
2017-08-31T06:13:58.883Z,99.90
2017-08-31T06:16:27.170Z,99.90
2017-08-31T06:18:55.441Z,99.90
2017-08-31T06:21:23.774Z,99.90
2017-08-31T06:23:52.151Z,99.90
2017-08-31T06:26:20.436Z,99.90
2017-08-31T06:28:48.714Z,99.90
2017-08-31T06:31:17.065Z,99.90
2017-08-31T06:33:45.331Z,99.90
2017-08-31T06:36:13.624Z,99.90
2017-08-31T06:38:41.923Z,99.90
2017-08-31T06:41:11.074Z,99.90
2017-08-31T06:43:39.352Z,99.90
2017-08-31T06:46:07.624Z,99.90
2017-08-31T06:48:35.930Z,99.90
2017-08-31T06:51:04.187Z,99.90
2017-08-31T06:53:32.486Z,99.90
2017-08-31T06:56:00.858Z,99.90
2017-08-31T06:58:29.155Z,99.90
2017-08-31T07:00:57.503Z,99.90
2017-08-31T07:03:25.779Z,99.90
2017-08-31T07:05:54.175Z,99.90
2017-08-31T07:08:22.448Z,99.90
2017-08-31T07:10:50.817Z,99.90
2017-08-31T07:13:19.197Z,99.90
2017-08-31T07:15:47.599Z,99.90
2017-08-31T07:18:15.879Z,99.90
2017-08-31T07:20:44.144Z,99.90
2017-08-31T07:23:12.487Z,99.90
2017-08-31T07:25:40.771Z,99.90
2017-08-31T07:28:09.033Z,99.90
2017-08-31T07:30:37.351Z,99.90
2017-08-31T07:33:05.727Z,99.90
2017-08-31T07:35:34.014Z,99.90
2017-08-31T07:38:02.296Z,99.90
2017-08-31T07:40:31.362Z,99.90
2017-08-31T07:42:59.647Z,99.90
2017-08-31T07:45:27.936Z,99.90
2017-08-31T07:47:56.185Z,99.90
2017-08-31T07:50:24.577Z,99.90
2017-08-31T07:52:52.837Z,99.90
2017-08-31T07:55:21.233Z,99.90
2017-08-31T07:57:49.502Z,99.90
2017-08-31T08:00:17.809Z,99.90
2017-08-31T08:02:46.088Z,99.90
2017-08-31T08:05:14.371Z,99.90
2017-08-31T08:07:42.679Z,99.90
2017-08-31T08:10:10.943Z,99.90
2017-08-31T08:12:39.225Z,99.90
2017-08-31T08:15:07.496Z,99.90
2017-08-31T08:17:35.814Z,99.90
2017-08-31T08:20:04.079Z,99.90
2017-08-31T08:22:32.362Z,99.90
2017-08-31T08:25:00.659Z,99.90
2017-08-31T08:27:28.995Z,99.90
2017-08-31T08:29:57.256Z,99.90
2017-08-31T08:32:25.560Z,99.90
2017-08-31T08:34:53.829Z,99.90
2017-08-31T08:37:22.105Z,99.90
2017-08-31T08:39:50.369Z,99.90
2017-08-31T08:42:18.678Z,99.90
2017-08-31T08:44:46.980Z,99.90
2017-08-31T08:47:15.368Z,99.90
2017-08-31T08:49:43.662Z,99.90
2017-08-31T08:52:12.689Z,99.90
2017-08-31T08:54:40.990Z,99.90
2017-08-31T08:57:09.304Z,99.90
2017-08-31T08:59:37.577Z,99.90
2017-08-31T09:02:06.043Z,99.90
2017-08-31T09:04:34.524Z,99.90
2017-08-31T09:07:02.791Z,99.90
2017-08-31T09:09:31.181Z,99.90
2017-08-31T09:11:59.455Z,99.90
2017-08-31T09:14:27.739Z,99.90
2017-08-31T09:16:56.015Z,99.90
2017-08-31T09:19:24.391Z,99.90
2017-08-31T09:21:52.685Z,99.90
2017-08-31T09:24:20.988Z,99.90
2017-08-31T09:26:49.273Z,98.90
2017-08-31T09:29:17.610Z,98.90
2017-08-31T09:31:45.979Z,98.70
2017-08-31T09:34:14.225Z,99.50
2017-08-31T09:36:42.525Z,99.20
2017-08-31T09:39:10.830Z,99.20
2017-08-31T09:41:39.148Z,99.20
2017-08-31T09:44:07.405Z,99.10
2017-08-31T09:46:35.795Z,98.10
2017-08-31T09:49:04.151Z,98.20
2017-08-31T09:51:32.441Z,98.90
2017-08-31T09:54:00.714Z,98.40
2017-08-31T09:56:29.054Z,97.60
2017-08-31T09:58:57.328Z,97.50
2017-08-31T10:01:25.708Z,97.70
2017-08-31T10:03:53.970Z,97.40
2017-08-31T10:06:22.233Z,97.30
2017-08-31T10:08:50.579Z,97.10
2017-08-31T10:11:18.863Z,97.10
2017-08-31T10:13:47.190Z,96.30
2017-08-31T10:16:15.478Z,96.70
2017-08-31T10:18:43.874Z,96.60
2017-08-31T10:21:12.238Z,96.80
2017-08-31T10:23:40.537Z,96.90
2017-08-31T10:26:08.811Z,97.00
2017-08-31T10:28:37.107Z,96.90
2017-08-31T10:31:05.395Z,96.20
2017-08-31T10:33:33.669Z,95.90
2017-08-31T10:36:01.943Z,95.70
2017-08-31T10:38:30.976Z,96.30
2017-08-31T10:40:59.242Z,96.20
2017-08-31T10:43:27.560Z,95.70
2017-08-31T10:45:55.818Z,95.60
2017-08-31T10:48:24.104Z,95.00
2017-08-31T10:50:52.397Z,95.30
2017-08-31T10:53:20.672Z,95.60
2017-08-31T10:55:48.946Z,95.50
2017-08-31T10:58:17.204Z,95.70
2017-08-31T11:00:45.484Z,96.40
2017-08-31T11:03:13.761Z,96.70
2017-08-31T11:05:42.034Z,97.10
2017-08-31T11:08:11.408Z,96.70
2017-08-31T11:10:39.987Z,96.10
2017-08-31T11:13:08.259Z,95.00
2017-08-31T11:15:36.521Z,94.20
2017-08-31T11:18:04.784Z,93.90
2017-08-31T11:20:33.065Z,93.70
2017-08-31T11:23:01.331Z,92.90
2017-08-31T11:25:29.625Z,92.30
2017-08-31T11:27:57.958Z,91.50
2017-08-31T11:30:26.293Z,92.20
2017-08-31T11:32:54.543Z,92.50
2017-08-31T11:35:22.925Z,92.70
2017-08-31T11:37:51.151Z,91.60
2017-08-31T11:40:19.423Z,92.00
2017-08-31T11:42:47.705Z,91.50
2017-08-31T11:45:15.987Z,92.00
2017-08-31T11:47:44.312Z,90.90
2017-08-31T11:50:12.651Z,90.40
2017-08-31T11:52:40.920Z,90.90
2017-08-31T11:55:09.194Z,91.40
2017-08-31T11:57:37.572Z,91.80
2017-08-31T12:00:05.832Z,91.20
2017-08-31T12:02:34.233Z,91.10
2017-08-31T12:05:02.667Z,91.80
2017-08-31T12:07:30.987Z,90.80
2017-08-31T12:09:59.275Z,90.20
2017-08-31T12:12:27.545Z,91.20
2017-08-31T12:14:55.822Z,91.40
2017-08-31T12:17:24.091Z,91.50
2017-08-31T12:19:52.564Z,91.10
2017-08-31T12:22:20.850Z,90.70
2017-08-31T12:24:49.135Z,90.40
2017-08-31T12:27:17.417Z,90.40
2017-08-31T12:29:45.711Z,90.50
2017-08-31T12:32:14.001Z,90.50
2017-08-31T12:34:42.272Z,90.50
2017-08-31T12:37:10.536Z,90.80
2017-08-31T12:39:38.937Z,91.70
2017-08-31T12:42:07.211Z,90.40
2017-08-31T12:44:35.481Z,90.10
2017-08-31T12:47:03.761Z,89.50
2017-08-31T12:49:32.031Z,90.30
2017-08-31T12:52:00.327Z,90.00
2017-08-31T12:54:28.584Z,90.20
2017-08-31T12:56:56.878Z,88.50
2017-08-31T12:59:25.171Z,91.80
2017-08-31T13:01:53.549Z,94.70
2017-08-31T13:04:21.811Z,97.30
2017-08-31T13:06:50.120Z,98.90
2017-08-31T13:09:18.489Z,99.90
2017-08-31T13:11:46.788Z,99.90
2017-08-31T13:14:15.052Z,99.90
2017-08-31T13:16:43.411Z,99.90
2017-08-31T13:19:11.691Z,99.90
2017-08-31T13:21:39.969Z,99.90
2017-08-31T13:24:08.242Z,99.90
2017-08-31T13:26:36.616Z,99.90
2017-08-31T13:29:04.888Z,99.90
2017-08-31T13:31:33.177Z,99.90
2017-08-31T13:34:01.490Z,99.90
2017-08-31T13:36:29.797Z,99.90
2017-08-31T13:38:58.123Z,99.90
2017-08-31T13:41:26.408Z,99.90
2017-08-31T13:43:54.685Z,99.90
2017-08-31T13:46:22.969Z,99.90
2017-08-31T13:48:51.258Z,99.90
2017-08-31T13:51:19.533Z,99.90
2017-08-31T13:53:47.908Z,99.90
2017-08-31T13:56:16.175Z,99.90
2017-08-31T13:58:44.460Z,99.90
2017-08-31T14:01:12.739Z,99.90
2017-08-31T14:03:41.025Z,99.90
2017-08-31T14:06:09.597Z,99.90
2017-08-31T14:08:37.867Z,99.90
2017-08-31T14:11:06.157Z,99.90
2017-08-31T14:13:34.423Z,99.90
2017-08-31T14:16:02.811Z,99.90
2017-08-31T14:18:31.083Z,99.90
2017-08-31T14:20:59.370Z,99.90
2017-08-31T14:23:27.635Z,99.90
2017-08-31T14:25:55.926Z,99.90
2017-08-31T14:28:24.210Z,99.90
2017-08-31T14:30:52.598Z,99.90
2017-08-31T14:33:20.883Z,99.90
2017-08-31T14:35:49.351Z,99.90
2017-08-31T14:38:17.609Z,99.90
2017-08-31T14:40:46.025Z,99.90
2017-08-31T14:43:14.438Z,99.90
2017-08-31T14:45:42.705Z,99.90
2017-08-31T14:48:11.048Z,99.90
2017-08-31T14:50:39.323Z,99.90
2017-08-31T14:53:07.694Z,99.90
2017-08-31T14:55:35.968Z,99.90
2017-08-31T14:58:04.369Z,99.90
2017-08-31T15:00:32.729Z,99.90
2017-08-31T15:03:01.126Z,99.90
2017-08-31T15:05:29.489Z,99.90
2017-08-31T15:07:57.879Z,99.90
2017-08-31T15:10:26.158Z,99.90
2017-08-31T15:12:54.437Z,99.90
2017-08-31T15:15:22.716Z,99.90
2017-08-31T15:17:50.997Z,99.90
2017-08-31T15:20:19.270Z,99.90
2017-08-31T15:22:47.577Z,99.90
2017-08-31T15:25:15.924Z,99.90
2017-08-31T15:27:44.190Z,99.90
2017-08-31T15:30:12.479Z,99.90
2017-08-31T15:32:40.824Z,99.90
2017-08-31T15:35:09.125Z,99.90
2017-08-31T15:37:37.397Z,99.90
2017-08-31T15:40:05.671Z,99.90
2017-08-31T15:42:33.936Z,99.90
2017-08-31T15:45:02.327Z,99.90
2017-08-31T15:47:30.603Z,99.90
2017-08-31T15:49:59.000Z,99.90
2017-08-31T15:52:27.288Z,99.90
2017-08-31T15:54:55.586Z,99.90
2017-08-31T15:57:23.921Z,99.90
2017-08-31T15:59:52.318Z,99.90
2017-08-31T16:02:20.592Z,99.90
2017-08-31T16:04:48.854Z,99.90
2017-08-31T16:07:17.242Z,99.90
2017-08-31T16:09:45.527Z,99.90
2017-08-31T16:12:13.906Z,99.90
2017-08-31T16:14:42.277Z,99.90
2017-08-31T16:17:10.554Z,99.90
2017-08-31T16:19:38.829Z,99.90
2017-08-31T16:22:07.111Z,99.90
2017-08-31T16:24:35.379Z,99.90
2017-08-31T16:27:03.667Z,99.90
2017-08-31T16:29:32.039Z,99.90
2017-08-31T16:32:00.337Z,99.90
2017-08-31T16:34:29.376Z,99.90
2017-08-31T16:36:57.681Z,99.90
2017-08-31T16:39:25.940Z,99.90
2017-08-31T16:41:54.347Z,99.90
2017-08-31T16:44:22.622Z,99.90
2017-08-31T16:46:50.901Z,99.90
2017-08-31T16:49:19.262Z,99.90
2017-08-31T16:51:47.546Z,99.90
2017-08-31T16:54:15.924Z,99.90
2017-08-31T16:56:44.197Z,99.90
2017-08-31T16:59:12.472Z,99.90
2017-08-31T17:01:40.857Z,99.90
2017-08-31T17:04:09.240Z,99.90
2017-08-31T17:06:37.524Z,99.90
2017-08-31T17:09:05.901Z,99.90
2017-08-31T17:11:34.186Z,99.90
2017-08-31T17:14:02.455Z,99.90
2017-08-31T17:16:30.739Z,99.90
2017-08-31T17:18:59.017Z,99.90
2017-08-31T17:21:27.386Z,99.90
2017-08-31T17:23:55.659Z,99.90
2017-08-31T17:26:23.941Z,99.90
2017-08-31T17:28:52.206Z,99.90
2017-08-31T17:31:20.494Z,99.90
2017-08-31T17:33:48.767Z,99.90
2017-08-31T17:36:17.048Z,99.90
2017-08-31T17:38:45.434Z,99.90
2017-08-31T17:41:13.735Z,99.90
2017-08-31T17:43:42.001Z,99.90
2017-08-31T17:46:11.107Z,99.90
2017-08-31T17:48:39.368Z,99.90
2017-08-31T17:51:07.653Z,99.90
2017-08-31T17:53:36.695Z,99.90
2017-08-31T17:56:05.015Z,99.90
2017-08-31T17:58:33.391Z,99.90
2017-08-31T18:01:01.757Z,99.90
2017-08-31T18:03:30.140Z,99.90
2017-08-31T18:05:58.391Z,99.90
2017-08-31T18:08:26.690Z,99.90
2017-08-31T18:10:54.958Z,99.90
2017-08-31T18:13:23.353Z,99.90
2017-08-31T18:15:51.728Z,99.90
2017-08-31T18:18:20.105Z,99.90
2017-08-31T18:20:48.383Z,99.90
2017-08-31T18:23:16.669Z,99.90
2017-08-31T18:25:44.956Z,99.90
2017-08-31T18:28:13.223Z,99.90
2017-08-31T18:30:41.584Z,99.90
2017-08-31T18:33:09.878Z,99.90
2017-08-31T18:35:38.145Z,99.90
2017-08-31T18:38:06.406Z,99.90
2017-08-31T18:40:34.721Z,99.90
2017-08-31T18:43:03.000Z,99.90
2017-08-31T18:45:31.359Z,99.90
2017-08-31T18:47:59.655Z,99.90
2017-08-31T18:50:27.993Z,99.90
2017-08-31T18:52:56.303Z,99.90
2017-08-31T18:55:24.563Z,99.90
2017-08-31T18:57:52.980Z,99.90
2017-08-31T19:00:21.322Z,99.90
2017-08-31T19:02:49.644Z,99.90
2017-08-31T19:05:17.999Z,99.90
2017-08-31T19:07:46.400Z,99.90
2017-08-31T19:10:14.848Z,99.90
2017-08-31T19:12:43.122Z,99.90
2017-08-31T19:15:11.464Z,99.90
2017-08-31T19:17:39.774Z,99.90
2017-08-31T19:20:08.088Z,99.90
2017-08-31T19:22:36.422Z,99.90
2017-08-31T19:25:04.720Z,99.90
2017-08-31T19:27:33.197Z,99.90
2017-08-31T19:30:01.465Z,99.90
2017-08-31T19:32:29.753Z,99.90
2017-08-31T19:34:58.007Z,99.90
2017-08-31T19:37:26.402Z,99.90
2017-08-31T19:39:54.682Z,99.90
2017-08-31T19:42:22.942Z,99.90
2017-08-31T19:44:51.277Z,99.90
2017-08-31T19:47:20.301Z,99.90
2017-08-31T19:49:48.587Z,99.90
2017-08-31T19:52:16.890Z,99.90
2017-08-31T19:54:45.181Z,99.90
2017-08-31T19:57:13.437Z,99.90
2017-08-31T19:59:41.740Z,99.90
2017-08-31T20:02:10.126Z,99.90
2017-08-31T20:04:38.393Z,99.90
2017-08-31T20:07:06.700Z,99.90
2017-08-31T20:09:34.968Z,99.90
2017-08-31T20:12:03.367Z,99.90
2017-08-31T20:14:31.726Z,99.90
2017-08-31T20:16:59.979Z,99.90
2017-08-31T20:19:28.285Z,99.90
2017-08-31T20:21:56.570Z,99.90
2017-08-31T20:24:24.852Z,99.90
2017-08-31T20:26:53.115Z,99.90
2017-08-31T20:29:21.390Z,99.90
2017-08-31T20:31:49.656Z,99.90
2017-08-31T20:34:17.975Z,99.90
2017-08-31T20:36:46.452Z,99.90
2017-08-31T20:39:14.723Z,99.90
2017-08-31T20:41:43.015Z,99.90
2017-08-31T20:44:11.314Z,99.90
2017-08-31T20:46:40.411Z,99.90
2017-08-31T20:49:09.577Z,99.90
2017-08-31T20:51:37.901Z,99.90
2017-08-31T20:54:06.226Z,99.90
2017-08-31T20:56:34.542Z,99.90
2017-08-31T20:59:02.832Z,99.90
2017-08-31T21:01:31.980Z,99.90
2017-08-31T21:04:01.056Z,99.90
2017-08-31T21:06:29.315Z,99.90
2017-08-31T21:08:57.665Z,99.90
2017-08-31T21:11:25.933Z,99.90
2017-08-31T21:13:54.204Z,99.90
2017-08-31T21:16:22.495Z,99.90
2017-08-31T21:18:50.876Z,99.90
2017-08-31T21:21:19.137Z,99.90
2017-08-31T21:23:47.425Z,99.90
2017-08-31T21:26:16.478Z,99.90
2017-08-31T21:28:44.825Z,99.90
2017-08-31T21:31:13.287Z,99.90
2017-08-31T21:33:42.299Z,99.90
2017-08-31T21:36:11.045Z,99.90
2017-08-31T21:38:39.335Z,99.90
2017-08-31T21:41:07.638Z,99.90
2017-08-31T21:43:35.909Z,99.90
2017-08-31T21:46:04.181Z,99.90
2017-08-31T21:48:32.567Z,99.90
2017-08-31T21:51:00.831Z,99.90
2017-08-31T21:53:29.215Z,99.90
2017-08-31T21:55:57.485Z,99.90
2017-08-31T21:58:25.894Z,99.90
2017-08-31T22:00:54.152Z,99.90
2017-08-31T22:03:22.531Z,99.90
2017-08-31T22:05:50.788Z,99.90
2017-08-31T22:08:19.052Z,99.90
2017-08-31T22:10:47.345Z,99.90
2017-08-31T22:13:15.609Z,99.90
2017-08-31T22:15:43.876Z,99.90
2017-08-31T22:18:12.140Z,99.90
2017-08-31T22:20:40.512Z,99.90
2017-08-31T22:23:08.802Z,99.90
2017-08-31T22:25:37.182Z,99.90
2017-08-31T22:28:05.458Z,99.90
2017-08-31T22:30:33.723Z,99.90
2017-08-31T22:33:01.996Z,99.90
2017-08-31T22:35:30.261Z,99.90
2017-08-31T22:37:58.524Z,99.90
2017-08-31T22:40:26.840Z,99.90
2017-08-31T22:42:55.231Z,99.90
2017-08-31T22:45:23.516Z,99.90
2017-08-31T22:47:51.814Z,99.90
2017-08-31T22:50:20.835Z,99.90
2017-08-31T22:52:49.249Z,99.90
2017-08-31T22:55:19.319Z,99.90
2017-08-31T23:00:47.121Z,99.90
2017-08-31T23:03:15.458Z,99.90
2017-08-31T23:05:43.713Z,99.90
2017-08-31T23:08:11.998Z,99.90
2017-08-31T23:10:40.285Z,99.90
2017-08-31T23:13:08.641Z,99.90
2017-08-31T23:15:36.908Z,99.90
2017-08-31T23:18:05.215Z,99.90
2017-08-31T23:20:33.569Z,99.90
2017-08-31T23:23:01.849Z,99.90
2017-08-31T23:25:30.132Z,99.90
2017-08-31T23:27:58.380Z,99.90
2017-08-31T23:30:26.787Z,99.90
2017-08-31T23:32:55.161Z,99.90
2017-08-31T23:35:23.508Z,99.90
2017-08-31T23:37:51.785Z,99.90
2017-08-31T23:40:20.042Z,99.90
2017-08-31T23:42:49.220Z,99.90
2017-08-31T23:45:17.491Z,99.90
2017-08-31T23:47:45.785Z,99.90
2017-08-31T23:50:14.061Z,99.90
2017-08-31T23:52:42.432Z,99.90
2017-08-31T23:55:10.701Z,99.90
2017-08-31T23:57:38.986Z,99.90
